Time;durP1;ratioP1;P1;durP2;ratioP2;P2;SDS_P1;SDS_P2;PMS_P1;PMS_P2;Temp;Humidity;BMP_temperature;BMP_pressure;BME280_temperature;BME280_humidity;BME280_pressure;Samples;Min_cycle;Max_cycle;Signal;HPM_P1;HPM_P2
2021/03/28 00:01:15;;;;;;;33.05;22.58;;;9.80;57.10;;;;;;5024144;28;20038;-62
2021/03/28 00:03:40;;;;;;;33.03;21.65;;;9.80;57.00;;;;;;5025667;28;20368;-62
2021/03/28 00:06:31;;;;;;;34.30;22.00;;;9.80;57.10;;;;;;5020605;28;20022;-62
2021/03/28 00:09:17;;;;;;;33.03;23.08;;;9.70;57.10;;;;;;5024979;28;20071;-62
2021/03/28 00:11:57;;;;;;;34.85;22.20;;;9.70;57.20;;;;;;5010705;28;20026;-62
2021/03/28 00:14:35;;;;;;;35.35;23.77;;;9.70;57.50;;;;;;5018919;28;20025;-62
2021/03/28 00:17:05;;;;;;;36.35;24.65;;;9.60;57.40;;;;;;5013146;28;20022;-62
2021/03/28 00:19:35;;;;;;;34.80;23.17;;;9.60;57.60;;;;;;5023219;28;20373;-62
2021/03/28 00:22:08;;;;;;;37.67;25.55;;;9.50;57.60;;;;;;5015252;28;20056;-62
2021/03/28 00:24:40;;;;;;;37.67;25.25;;;9.50;57.70;;;;;;5016793;28;20374;-62
2021/03/28 00:27:12;;;;;;;43.50;26.13;;;9.50;57.80;;;;;;5030246;28;20056;-62
2021/03/28 00:29:52;;;;;;;34.50;24.33;;;9.40;58.00;;;;;;5023449;28;20040;-62
2021/03/28 00:32:45;;;;;;;37.88;24.95;;;9.40;58.10;;;;;;5014322;28;20101;-62
2021/03/28 00:35:14;;;;;;;36.30;25.08;;;9.30;58.20;;;;;;5007001;28;20022;-62
2021/03/28 00:37:42;;;;;;;39.42;24.02;;;9.30;58.20;;;;;;5015264;28;20045;-62
2021/03/28 00:40:08;;;;;;;36.28;24.08;;;9.30;58.40;;;;;;5020588;28;20034;-62
2021/03/28 00:42:39;;;;;;;34.05;24.20;;;9.20;58.30;;;;;;5021157;28;20022;-62
2021/03/28 00:45:23;;;;;;;37.40;24.40;;;9.20;58.50;;;;;;5018515;28;20033;-62
2021/03/28 00:48:18;;;;;;;37.10;24.15;;;9.10;58.30;;;;;;5022611;28;20080;-62
2021/03/28 00:51:13;;;;;;;37.00;24.38;;;9.10;58.40;;;;;;5017430;28;20052;-62
2021/03/28 00:54:10;;;;;;;37.72;24.48;;;9.10;58.50;;;;;;5024133;28;20026;-62
2021/03/28 00:56:44;;;;;;;34.85;23.60;;;9.10;58.60;;;;;;5012188;28;20381;-62
2021/03/28 00:59:24;;;;;;;35.85;24.38;;;9.00;58.70;;;;;;5028015;28;20452;-62
2021/03/28 01:02:14;;;;;;;35.55;24.35;;;9.00;58.70;;;;;;5029609;28;20488;-62
2021/03/28 01:04:58;;;;;;;39.17;25.25;;;9.00;58.70;;;;;;5027148;28;20466;-62
2021/03/28 01:07:29;;;;;;;37.33;23.90;;;9.00;58.90;;;;;;5014127;28;20097;-62
2021/03/28 01:10:20;;;;;;;35.03;23.70;;;8.90;58.90;;;;;;5010190;28;20029;-62
2021/03/28 01:13:07;;;;;;;37.83;23.95;;;8.90;58.90;;;;;;5026339;28;20400;-62
2021/03/28 01:15:42;;;;;;;35.55;22.38;;;8.90;58.90;;;;;;5023864;28;20025;-62
2021/03/28 01:18:31;;;;;;;36.10;24.15;;;8.90;59.00;;;;;;5020072;28;20030;-62
2021/03/28 01:21:06;;;;;;;39.85;26.98;;;8.90;59.10;;;;;;5027505;28;20038;-62
2021/03/28 01:23:35;;;;;;;37.30;24.75;;;8.80;59.00;;;;;;5015489;28;20073;-62
2021/03/28 01:26:11;;;;;;;38.25;24.75;;;8.80;59.10;;;;;;5030118;28;20105;-62
2021/03/28 01:28:48;;;;;;;40.45;25.85;;;8.80;59.20;;;;;;5026025;28;20030;-62
2021/03/28 01:31:16;;;;;;;36.65;24.77;;;8.80;59.20;;;;;;5024975;28;20018;-62
2021/03/28 01:34:05;;;;;;;42.47;27.63;;;8.70;59.20;;;;;;5004038;28;20102;-62
2021/03/28 01:36:40;;;;;;;41.35;26.92;;;8.70;59.40;;;;;;5021457;28;20056;-62
2021/03/28 01:39:26;;;;;;;43.80;26.77;;;8.60;59.30;;;;;;5030954;28;20076;-62
2021/03/28 01:42:02;;;;;;;38.90;24.67;;;8.70;59.30;;;;;;5021018;28;20022;-62
2021/03/28 01:44:39;;;;;;;35.97;24.27;;;8.70;59.30;;;;;;5021753;28;20052;-62
2021/03/28 01:47:42;;;;;;;41.05;24.25;;;8.60;59.30;;;;;;5015453;28;20111;-62
2021/03/28 01:50:26;;;;;;;39.65;24.70;;;8.60;59.50;;;;;;5017870;28;20144;-62
2021/03/28 01:53:13;;;;;;;38.53;25.65;;;8.60;59.40;;;;;;5030247;28;20027;-62
2021/03/28 01:56:15;;;;;;;40.38;26.30;;;8.60;59.30;;;;;;5025103;28;20033;-62
2021/03/28 01:59:02;;;;;;;37.17;25.92;;;8.60;59.40;;;;;;5033073;28;20029;-62
2021/03/28 02:01:58;;;;;;;44.22;27.20;;;8.60;59.40;;;;;;5008284;28;20026;-62
2021/03/28 02:04:26;;;;;;;41.47;24.60;;;8.60;59.50;;;;;;5019954;28;20111;-62
2021/03/28 02:07:20;;;;;;;42.58;27.70;;;8.50;59.60;;;;;;5028541;28;20026;-62
2021/03/28 02:10:05;;;;;;;44.50;29.05;;;8.50;59.60;;;;;;5019896;28;20013;-62
2021/03/28 02:12:36;;;;;;;38.50;26.65;;;8.40;59.70;;;;;;5017389;28;20033;-62
2021/03/28 02:15:11;;;;;;;45.85;28.15;;;8.40;59.90;;;;;;5015118;28;20512;-62
2021/03/28 02:18:10;;;;;;;42.70;29.90;;;8.40;59.90;;;;;;5025913;28;20025;-62
2021/03/28 02:20:42;;;;;;;40.28;28.13;;;8.40;60.00;;;;;;5020595;28;20393;-62
2021/03/28 02:23:26;;;;;;;45.17;30.35;;;8.40;60.10;;;;;;5033447;28;20025;-62
2021/03/28 02:26:00;;;;;;;45.72;30.55;;;8.30;60.00;;;;;;5034585;28;20057;-62
2021/03/28 02:28:45;;;;;;;44.10;29.25;;;8.30;60.00;;;;;;5020405;28;20029;-62
2021/03/28 02:31:27;;;;;;;42.08;27.83;;;8.30;60.00;;;;;;5022907;28;20147;-62
2021/03/28 02:34:17;;;;;;;44.33;30.73;;;8.30;60.20;;;;;;5030512;28;20097;-62
2021/03/28 02:37:07;;;;;;;44.50;28.67;;;8.30;60.30;;;;;;5026152;28;20026;-62
2021/03/28 02:39:33;;;;;;;38.03;26.65;;;8.20;60.20;;;;;;5022782;28;20473;-62
2021/03/28 02:42:08;;;;;;;41.05;27.75;;;8.20;60.30;;;;;;5030671;28;20068;-62
2021/03/28 02:44:36;;;;;;;42.00;28.08;;;8.20;60.30;;;;;;5033738;28;20416;-62
2021/03/28 02:47:23;;;;;;;42.60;28.27;;;8.20;60.40;;;;;;5020482;28;20064;-62
2021/03/28 02:50:22;;;;;;;42.33;28.30;;;8.20;60.40;;;;;;5021122;28;20045;-62
2021/03/28 02:53:26;;;;;;;43.20;29.20;;;8.20;60.50;;;;;;5022506;28;20531;-62
2021/03/28 02:55:51;;;;;;;44.15;27.77;;;8.10;60.60;;;;;;5032195;28;20469;-62
2021/03/28 02:58:41;;;;;;;46.05;29.23;;;8.10;60.60;;;;;;5029315;28;20056;-62
2021/03/28 03:01:26;;;;;;;43.70;29.10;;;8.10;60.50;;;;;;5026242;28;20022;-62
2021/03/28 03:04:10;;;;;;;44.00;29.48;;;8.10;60.80;;;;;;5025752;28;20033;-62
2021/03/28 03:06:46;;;;;;;44.90;29.75;;;8.00;60.80;;;;;;5025961;28;20377;-62
2021/03/28 03:09:26;;;;;;;45.50;29.48;;;8.00;60.90;;;;;;5032405;28;20048;-62
2021/03/28 03:12:33;;;;;;;52.47;30.95;;;8.00;61.10;;;;;;5014679;28;20030;-62
2021/03/28 03:15:36;;;;;;;42.65;28.98;;;7.90;61.10;;;;;;5038803;28;20033;-62
2021/03/28 03:18:45;;;;;;;43.47;28.95;;;7.90;61.30;;;;;;5020773;28;20022;-62
2021/03/28 03:22:01;;;;;;;43.65;27.83;;;7.90;61.30;;;;;;5020248;28;20021;-62
2021/03/28 03:24:51;;;;;;;40.38;27.20;;;7.80;61.20;;;;;;5039659;28;20032;-62
2021/03/28 03:27:20;;;;;;;42.10;27.58;;;7.80;61.30;;;;;;5036352;28;20029;-62
2021/03/28 03:29:59;;;;;;;43.70;29.25;;;7.80;61.50;;;;;;5027460;28;20038;-62
2021/03/28 03:32:59;;;;;;;46.70;30.48;;;7.80;61.60;;;;;;5020279;28;20036;-62
2021/03/28 03:35:24;;;;;;;42.20;29.17;;;7.80;61.50;;;;;;5005884;28;20205;-62
2021/03/28 03:38:07;;;;;;;46.28;30.83;;;7.70;61.60;;;;;;5025191;28;20113;-62
2021/03/28 03:40:44;;;;;;;42.55;29.00;;;7.70;61.50;;;;;;5024653;28;20029;-62
2021/03/28 03:43:35;;;;;;;39.58;28.38;;;7.70;61.80;;;;;;5022631;28;20021;-62
2021/03/28 03:46:06;;;;;;;47.90;31.23;;;7.70;61.70;;;;;;5018831;28;20029;-62
2021/03/28 03:49:03;;;;;;;43.50;30.35;;;7.70;62.50;;;;;;5020083;28;20026;-62
2021/03/28 03:51:53;;;;;;;46.55;30.63;;;7.70;61.90;;;;;;5028957;28;20365;-62
2021/03/28 03:54:22;;;;;;;43.95;29.75;;;7.70;61.90;;;;;;5015946;28;20037;-62
2021/03/28 03:56:53;;;;;;;43.63;29.77;;;7.80;62.10;;;;;;5026805;28;20018;-62
2021/03/28 03:59:42;;;;;;;46.35;32.30;;;7.80;62.00;;;;;;5019964;28;20018;-62
2021/03/28 04:02:40;;;;;;;50.65;32.50;;;7.80;62.20;;;;;;5022667;28;20042;-62
2021/03/28 04:05:34;;;;;;;48.65;33.08;;;7.80;61.90;;;;;;5010056;28;20100;-62
2021/03/28 04:08:03;;;;;;;47.67;31.77;;;7.90;61.90;;;;;;5020562;28;20055;-62
2021/03/28 04:10:32;;;;;;;49.55;34.85;;;7.90;62.00;;;;;;5018747;28;20061;-62
2021/03/28 04:13:38;;;;;;;46.33;31.95;;;8.00;62.10;;;;;;5017261;28;20022;-62
2021/03/28 04:16:27;;;;;;;46.60;31.70;;;8.00;62.00;;;;;;5024993;28;20469;-62
2021/03/28 04:19:21;;;;;;;42.95;30.17;;;8.10;62.10;;;;;;5023152;28;20022;-62
2021/03/28 04:21:59;;;;;;;43.15;31.63;;;8.20;62.00;;;;;;5024726;28;20026;-62
2021/03/28 04:24:39;;;;;;;45.08;29.65;;;8.20;61.80;;;;;;5020640;28;20021;-62
2021/03/28 04:27:19;;;;;;;41.47;26.75;;;8.30;61.60;;;;;;5010108;28;20030;-62
2021/03/28 04:29:48;;;;;;;42.03;28.27;;;8.40;61.50;;;;;;5017404;28;20021;-62
2021/03/28 04:32:41;;;;;;;39.90;27.05;;;8.50;61.50;;;;;;5019330;28;20025;-62
2021/03/28 04:35:18;;;;;;;35.50;25.42;;;8.60;61.30;;;;;;5014870;28;20056;-62
2021/03/28 04:38:12;;;;;;;38.05;25.92;;;8.70;61.10;;;;;;5028426;28;20037;-62
2021/03/28 04:40:55;;;;;;;34.35;23.98;;;8.80;60.90;;;;;;5023792;28;20026;-62
2021/03/28 04:43:48;;;;;;;37.08;26.23;;;8.90;61.00;;;;;;5018443;28;20036;-62
2021/03/28 04:46:23;;;;;;;46.60;30.98;;;9.10;60.90;;;;;;5021221;28;20032;-62
2021/03/28 04:49:25;;;;;;;45.15;31.63;;;9.20;60.70;;;;;;5022644;28;20033;-62
2021/03/28 04:52:06;;;;;;;45.53;31.90;;;9.30;60.80;;;;;;5017847;28;20026;-62
2021/03/28 04:55:02;;;;;;;48.17;30.73;;;9.50;61.10;;;;;;5020170;28;20349;-62
2021/03/28 04:58:05;;;;;;;48.30;32.25;;;9.70;61.30;;;;;;5030219;28;20036;-62
2021/03/28 05:01:10;;;;;;;46.88;30.67;;;9.90;60.50;;;;;;5033034;28;20485;-62
2021/03/28 05:04:20;;;;;;;46.15;30.10;;;10.10;60.00;;;;;;5016403;28;20626;-62
2021/03/28 05:07:24;;;;;;;46.95;31.83;;;10.30;59.50;;;;;;5038334;28;20090;-62
2021/03/28 05:17:10;;;;;;;42.13;27.10;;;10.80;58.50;;;;;;5017671;28;20049;-62
2021/03/28 05:20:17;;;;;;;38.75;25.75;;;11.20;58.30;;;;;;5031239;28;20151;-62
2021/03/28 05:23:10;;;;;;;36.40;25.58;;;11.80;57.80;;;;;;5032396;28;20037;-61
2021/03/28 05:26:07;;;;;;;37.33;26.50;;;12.30;57.10;;;;;;5017474;28;20112;-62
2021/03/28 05:28:40;;;;;;;31.88;25.58;;;12.90;56.30;;;;;;5017637;28;20025;-62
2021/03/28 05:31:32;;;;;;;35.08;25.23;;;13.30;55.30;;;;;;5027749;28;20029;-62
2021/03/28 05:34:17;;;;;;;34.95;26.00;;;13.60;54.50;;;;;;5019498;28;20026;-62
2021/03/28 05:36:48;;;;;;;33.03;24.92;;;13.80;54.30;;;;;;5020731;28;20022;-61
2021/03/28 05:39:36;;;;;;;33.50;22.70;;;14.20;53.30;;;;;;5029701;28;20033;-62
2021/03/28 05:42:07;;;;;;;32.70;23.17;;;14.70;52.70;;;;;;5023994;28;20460;-62
2021/03/28 05:44:47;;;;;;;;;;;14.90;51.90;;;;;;5024964;28;20503;-62
2021/03/28 05:47:28;;;;;;;26.45;19.23;;;15.00;51.60;;;;;;5018069;28;19909;-61
2021/03/28 05:50:16;;;;;;;30.40;21.90;;;15.10;51.60;;;;;;5027593;28;20076;-62
2021/03/28 05:52:57;;;;;;;30.52;21.58;;;15.30;51.00;;;;;;5021048;28;20032;-62
2021/03/28 05:55:46;;;;;;;31.45;22.73;;;15.40;50.60;;;;;;5019744;28;20057;-62
2021/03/28 05:58:33;;;;;;;29.45;21.45;;;15.60;50.40;;;;;;5026170;28;20018;-62
2021/03/28 06:01:43;;;;;;;30.02;21.73;;;15.80;49.90;;;;;;5019532;28;20022;-61
2021/03/28 06:04:44;;;;;;;32.30;20.60;;;16.10;49.40;;;;;;5022675;28;20021;-62
2021/03/28 06:07:47;;;;;;;27.52;19.58;;;16.40;48.90;;;;;;5014335;28;20025;-62
2021/03/28 06:10:34;;;;;;;29.10;21.27;;;16.70;48.10;;;;;;5026463;28;20034;-60
2021/03/28 06:13:15;;;;;;;30.00;20.27;;;17.00;47.40;;;;;;5021215;28;20339;-62
2021/03/28 06:15:55;;;;;;;27.85;19.10;;;17.00;46.40;;;;;;5016939;28;20096;-61
2021/03/28 06:18:41;;;;;;;28.63;19.73;;;16.90;46.20;;;;;;5025509;28;20080;-62
2021/03/28 06:21:28;;;;;;;28.83;18.77;;;16.60;46.30;;;;;;5018926;28;20104;-62
2021/03/28 06:24:25;;;;;;;26.65;18.27;;;16.30;46.70;;;;;;5020218;28;20044;-62
2021/03/28 06:27:18;;;;;;;24.10;18.17;;;15.80;46.90;;;;;;5019101;28;20083;-62
2021/03/28 06:30:21;;;;;;;23.50;16.40;;;15.50;47.30;;;;;;5018863;28;20053;-62
2021/03/28 06:32:49;;;;;;;25.77;17.02;;;15.10;47.80;;;;;;5025681;28;20029;-62
2021/03/28 06:35:34;;;;;;;25.67;18.30;;;14.80;48.00;;;;;;5022516;28;20105;-62
2021/03/28 06:38:17;;;;;;;26.00;17.45;;;14.60;48.10;;;;;;5030130;28;20021;-62
2021/03/28 06:40:57;;;;;;;29.10;21.65;;;14.50;48.70;;;;;;5025415;28;20029;-62
2021/03/28 06:43:54;;;;;;;34.92;22.75;;;14.30;49.10;;;;;;5016211;28;20117;-62
2021/03/28 06:46:57;;;;;;;29.73;21.95;;;14.20;49.50;;;;;;5022702;28;20516;-62
2021/03/28 06:50:00;;;;;;;29.33;21.88;;;14.10;49.90;;;;;;5020769;28;20049;-62
2021/03/28 06:52:37;;;;;;;29.45;20.30;;;14.00;50.00;;;;;;5019559;28;20061;-62
2021/03/28 06:55:42;;;;;;;31.50;22.30;;;13.90;50.20;;;;;;5014749;28;20041;-62
2021/03/28 06:58:16;;;;;;;31.67;22.65;;;13.80;50.20;;;;;;5029522;28;20072;-62
2021/03/28 07:01:19;;;;;;;35.72;24.77;;;13.70;50.20;;;;;;5027691;28;20099;-62
2021/03/28 07:03:57;;;;;;;32.35;23.40;;;13.50;50.20;;;;;;5016828;28;20022;-62
2021/03/28 07:06:28;;;;;;;35.97;24.13;;;13.40;50.60;;;;;;5024066;28;20037;-62
2021/03/28 07:09:00;;;;;;;;;;;13.30;50.70;;;;;;5018048;28;20908;-62
2021/03/28 07:11:57;;;;;;;32.50;23.10;;;13.20;50.80;;;;;;5030665;28;20293;-62
2021/03/28 07:14:48;;;;;;;36.33;24.85;;;13.10;50.90;;;;;;5031714;28;20120;-62
2021/03/28 07:17:13;;;;;;;36.63;26.75;;;13.10;51.20;;;;;;5016973;28;20022;-63
2021/03/28 07:20:09;;;;;;;39.83;27.25;;;13.10;51.50;;;;;;5020299;28;20029;-62
2021/03/28 07:22:37;;;;;;;37.92;27.60;;;13.10;51.70;;;;;;5025028;28;20065;-61
2021/03/28 07:25:43;;;;;;;38.83;26.85;;;13.10;52.00;;;;;;5019900;28;20032;-61
2021/03/28 07:28:45;;;;;;;37.70;26.08;;;13.10;52.10;;;;;;5024733;28;20342;-62
2021/03/28 07:31:27;;;;;;;37.25;26.13;;;13.00;52.20;;;;;;5018805;28;20108;-62
2021/03/28 07:34:38;;;;;;;39.17;27.58;;;13.00;52.10;;;;;;5026097;28;20071;-61
2021/03/28 07:37:48;;;;;;;39.10;26.92;;;13.00;52.10;;;;;;5019310;28;20057;-62
2021/03/28 07:40:45;;;;;;;36.10;25.35;;;13.00;52.10;;;;;;5018464;28;20350;-62
2021/03/28 07:43:47;;;;;;;38.70;26.17;;;12.90;52.20;;;;;;5015487;28;20022;-62
2021/03/28 07:46:31;;;;;;;33.60;25.75;;;12.90;51.90;;;;;;5013384;28;20022;-62
2021/03/28 07:49:11;;;;;;;37.22;24.70;;;12.90;52.30;;;;;;5027924;28;20485;-62
2021/03/28 07:51:42;;;;;;;37.25;27.25;;;12.90;52.60;;;;;;5023190;28;20571;-62
2021/03/28 07:54:52;;;;;;;35.65;24.38;;;12.90;52.60;;;;;;5014648;28;20049;-62
2021/03/28 07:57:33;;;;;;;37.20;26.83;;;12.90;52.40;;;;;;5044408;28;20041;-61
2021/03/28 08:00:17;;;;;;;37.70;26.20;;;12.80;53.40;;;;;;5030074;28;20109;-62
2021/03/28 08:03:04;;;;;;;33.20;24.00;;;12.80;52.80;;;;;;5015514;28;20108;-62
2021/03/28 08:05:56;;;;;;;32.97;22.48;;;12.80;52.60;;;;;;5020789;28;20022;-62
2021/03/28 08:08:21;;;;;;;;;;;12.80;52.40;;;;;;5019389;28;20072;-62
2021/03/28 08:11:16;;;;;;;32.15;21.20;;;12.70;52.60;;;;;;5019970;28;19921;-62
2021/03/28 08:13:51;;;;;;;35.92;21.95;;;12.80;52.70;;;;;;5023180;28;20045;-62
2021/03/28 08:17:01;;;;;;;31.88;21.63;;;12.80;52.60;;;;;;5015696;28;20029;-62
2021/03/28 08:19:45;;;;;;;30.05;21.00;;;12.80;52.70;;;;;;5020568;28;20013;-62
2021/03/28 08:22:45;;;;;;;32.00;23.38;;;12.80;52.60;;;;;;5022755;28;20120;-62
2021/03/28 08:25:44;;;;;;;28.52;21.75;;;12.80;52.70;;;;;;5009341;28;20443;-62
2021/03/28 08:28:37;;;;;;;30.88;22.48;;;12.80;52.80;;;;;;5020915;28;20034;-62
2021/03/28 08:31:09;;;;;;;33.42;23.67;;;12.80;53.00;;;;;;5012251;28;20034;-62
2021/03/28 08:33:41;;;;;;;32.13;23.20;;;12.80;52.90;;;;;;5020490;28;20018;-62
2021/03/28 08:36:27;;;;;;;31.35;22.95;;;12.80;52.80;;;;;;5022341;28;20071;-62
2021/03/28 08:39:07;;;;;;;28.23;21.10;;;12.80;52.80;;;;;;5030805;28;20021;-62
2021/03/28 08:41:57;;;;;;;30.55;20.33;;;12.80;52.70;;;;;;5020899;28;20025;-62
2021/03/28 08:44:59;;;;;;;26.23;18.55;;;12.80;53.00;;;;;;5025646;28;20044;-62
2021/03/28 08:47:46;;;;;;;28.08;20.65;;;12.80;52.30;;;;;;5019379;28;20039;-62
2021/03/28 08:50:30;;;;;;;25.63;17.50;;;12.80;52.20;;;;;;5032740;28;20099;-62
2021/03/28 08:53:10;;;;;;;21.98;17.08;;;12.80;52.20;;;;;;5021679;28;20029;-62
2021/03/28 08:55:50;;;;;;;25.27;19.15;;;12.80;52.00;;;;;;5028626;28;20346;-62
2021/03/28 08:58:20;;;;;;;26.70;17.50;;;12.80;51.80;;;;;;5022045;28;20076;-62
2021/03/28 09:01:10;;;;;;;23.17;17.05;;;12.80;51.70;;;;;;5022970;28;20052;-62
2021/03/28 09:03:58;;;;;;;23.50;17.23;;;12.80;51.60;;;;;;5024314;28;20022;-62
2021/03/28 09:06:50;;;;;;;28.33;19.23;;;12.70;51.40;;;;;;5030566;28;20381;-62
2021/03/28 09:09:47;;;;;;;30.25;18.33;;;12.70;51.60;;;;;;5019261;28;20519;-62
2021/03/28 09:12:47;;;;;;;26.80;19.42;;;12.70;51.40;;;;;;5019336;28;20026;-62
2021/03/28 09:15:32;;;;;;;25.83;18.52;;;12.70;51.30;;;;;;5013318;28;20703;-62
2021/03/28 09:18:09;;;;;;;27.23;19.70;;;12.70;51.40;;;;;;5029499;28;20021;-61
2021/03/28 09:20:47;;;;;;;28.67;19.75;;;12.60;51.30;;;;;;5024136;28;20036;-62
2021/03/28 09:23:42;;;;;;;28.80;20.33;;;12.70;51.80;;;;;;5019751;28;20056;-62
2021/03/28 09:26:38;;;;;;;29.27;20.20;;;12.70;51.60;;;;;;5021797;28;20400;-61
2021/03/28 09:29:34;;;;;;;27.90;19.80;;;12.70;51.80;;;;;;5017087;28;20487;-61
2021/03/28 09:32:30;;;;;;;29.23;20.00;;;12.70;51.90;;;;;;5015356;28;20488;-62
2021/03/28 09:35:17;;;;;;;26.42;19.58;;;12.80;51.80;;;;;;5016666;28;20018;-61
2021/03/28 09:38:03;;;;;;;34.15;22.33;;;12.80;51.70;;;;;;5030360;28;20022;-62
2021/03/28 09:40:49;;;;;;;32.55;21.70;;;12.80;51.50;;;;;;5019929;28;20033;-62
2021/03/28 09:43:36;;;;;;;37.00;21.60;;;12.80;51.70;;;;;;5017571;28;20055;-62
2021/03/28 09:46:24;;;;;;;25.92;17.70;;;12.80;51.80;;;;;;5024544;28;20030;-62
2021/03/28 09:49:04;;;;;;;26.15;18.88;;;12.80;51.50;;;;;;5026061;28;20025;-62
2021/03/28 09:51:38;;;;;;;31.23;19.90;;;12.90;51.20;;;;;;5028670;28;20044;-61
2021/03/28 09:54:28;;;;;;;24.30;17.20;;;12.90;51.80;;;;;;5024418;28;20037;-62
2021/03/28 09:57:13;;;;;;;24.10;17.15;;;13.00;50.90;;;;;;5032752;28;20025;-62
2021/03/28 10:00:00;;;;;;;24.83;16.00;;;13.00;50.40;;;;;;5028058;28;20539;-61
2021/03/28 10:02:50;;;;;;;25.45;17.05;;;13.10;50.30;;;;;;5030264;28;20025;-62
2021/03/28 10:05:24;;;;;;;24.23;17.58;;;13.10;50.00;;;;;;5014696;28;20079;-62
2021/03/28 10:08:04;;;;;;;25.35;17.80;;;13.10;49.90;;;;;;5031470;28;20097;-61
2021/03/28 10:10:49;;;;;;;25.57;18.00;;;13.20;49.70;;;;;;5020555;28;20034;-62
2021/03/28 10:13:32;;;;;;;25.25;17.70;;;13.20;50.00;;;;;;5016856;28;20033;-62
2021/03/28 10:16:17;;;;;;;26.27;17.48;;;13.20;49.60;;;;;;5026770;28;20444;-62
2021/03/28 10:19:07;;;;;;;26.83;17.65;;;13.30;49.70;;;;;;5031739;28;20075;-62
2021/03/28 10:21:36;;;;;;;24.02;16.30;;;13.30;50.10;;;;;;5025048;28;20029;-62
2021/03/28 10:24:14;;;;;;;21.73;14.02;;;13.30;49.50;;;;;;5017528;28;20521;-61
2021/03/28 10:27:14;;;;;;;20.58;14.52;;;13.30;49.10;;;;;;5030310;28;20025;-62
2021/03/28 10:30:10;;;;;;;21.98;14.65;;;13.30;49.00;;;;;;5017037;28;20091;-62
2021/03/28 10:33:18;;;;;;;23.15;13.40;;;13.30;48.70;;;;;;5021935;28;20036;-62
2021/03/28 10:36:10;;;;;;;19.52;13.48;;;13.30;48.80;;;;;;5012979;28;20034;-62
2021/03/28 10:38:56;;;;;;;18.05;12.18;;;13.30;48.80;;;;;;5022843;28;20030;-60
2021/03/28 10:42:16;;;;;;;20.08;13.27;;;13.30;48.70;;;;;;5020770;28;20033;-62
2021/03/28 10:45:01;;;;;;;20.60;13.25;;;13.20;48.70;;;;;;5036701;28;20033;-62
2021/03/28 10:47:27;;;;;;;18.70;12.18;;;13.20;48.70;;;;;;4987923;28;20065;-62
2021/03/28 10:50:24;;;;;;;18.48;12.23;;;13.20;48.70;;;;;;5019979;28;20042;-62
2021/03/28 10:53:12;;;;;;;19.48;12.35;;;13.20;49.30;;;;;;5024188;28;20105;-62
2021/03/28 10:55:53;;;;;;;19.98;13.80;;;13.20;48.60;;;;;;5020224;28;20033;-62
2021/03/28 10:58:57;;;;;;;18.33;13.80;;;13.10;48.60;;;;;;5016217;28;20024;-62
2021/03/28 11:01:44;;;;;;;22.23;14.70;;;13.10;48.90;;;;;;5006216;28;20076;-62
2021/03/28 11:04:47;;;;;;;22.35;15.52;;;13.10;49.20;;;;;;5017770;28;20048;-61
2021/03/28 11:07:24;;;;;;;23.05;14.20;;;13.00;48.90;;;;;;5015232;28;20021;-61
2021/03/28 11:09:58;;;;;;;20.55;13.80;;;13.00;49.00;;;;;;5014494;28;20037;-60
2021/03/28 11:12:51;;;;;;;20.63;13.48;;;13.00;49.00;;;;;;5014091;28;20026;-61
2021/03/28 11:15:48;;;;;;;17.20;12.70;;;13.00;49.10;;;;;;5012919;28;20417;-61
2021/03/28 11:18:41;;;;;;;20.38;12.68;;;13.00;48.80;;;;;;5028923;28;20393;-61
2021/03/28 11:21:34;;;;;;;17.15;13.05;;;12.90;49.00;;;;;;5015625;28;20033;-61
2021/03/28 11:24:39;;;;;;;17.65;13.07;;;12.80;49.30;;;;;;5014827;28;20523;-61
2021/03/28 11:27:29;;;;;;;17.13;12.88;;;12.80;49.10;;;;;;5011880;28;20033;-61
2021/03/28 11:30:13;;;;;;;19.35;13.23;;;12.60;49.40;;;;;;5011789;28;20068;-61
2021/03/28 11:33:01;;;;;;;19.45;13.20;;;12.50;49.80;;;;;;5012181;28;20025;-61
2021/03/28 11:35:38;;;;;;;22.92;14.05;;;12.50;49.50;;;;;;5017577;28;20032;-61
2021/03/28 11:38:06;;;;;;;22.08;14.80;;;12.40;49.70;;;;;;5007357;28;20466;-62
2021/03/28 11:40:39;;;;;;;22.67;15.05;;;12.40;50.60;;;;;;5015590;28;20029;-63
2021/03/28 11:43:08;;;;;;;22.02;14.70;;;12.40;49.90;;;;;;5017419;28;20384;-63
2021/03/28 11:45:43;;;;;;;21.35;14.98;;;12.30;49.70;;;;;;5013207;28;20136;-61
2021/03/28 11:48:30;;;;;;;21.98;16.00;;;12.30;49.90;;;;;;5014511;28;20025;-61
2021/03/28 11:51:12;;;;;;;23.13;15.73;;;12.30;49.50;;;;;;5008384;28;20030;-63
2021/03/28 11:53:39;;;;;;;23.63;16.48;;;12.30;49.90;;;;;;5023956;28;20021;-63
2021/03/28 11:56:34;;;;;;;19.90;13.82;;;12.20;50.00;;;;;;5020209;28;20025;-63
2021/03/28 11:59:04;;;;;;;22.92;14.15;;;12.20;49.60;;;;;;5007316;28;20022;-63
2021/03/28 12:01:59;;;;;;;21.95;14.93;;;12.20;49.30;;;;;;5015251;28;20069;-61
2021/03/28 12:04:31;;;;;;;24.60;16.02;;;12.20;49.10;;;;;;5019445;28;20022;-61
2021/03/28 12:06:58;;;;;;;21.23;15.05;;;12.20;49.40;;;;;;5023356;28;20092;-62
2021/03/28 12:09:29;;;;;;;21.75;14.55;;;12.20;49.40;;;;;;5024951;28;20025;-62
2021/03/28 12:11:59;;;;;;;24.35;15.45;;;12.30;49.50;;;;;;5026857;28;20472;-62
2021/03/28 12:14:32;;;;;;;20.92;15.15;;;12.30;49.60;;;;;;5016553;28;20029;-62
2021/03/28 12:17:11;;;;;;;21.98;14.88;;;12.30;49.60;;;;;;5013540;28;20037;-62
2021/03/28 12:20:12;;;;;;;27.70;16.48;;;12.40;49.40;;;;;;5010553;28;20030;-62
2021/03/28 12:22:38;;;;;;;;;;;12.40;49.70;;;;;;5010253;28;20022;-62
2021/03/28 12:25:04;;;;;;;24.58;15.25;;;12.40;49.70;;;;;;5011105;28;19909;-62
2021/03/28 12:27:40;;;;;;;24.85;16.48;;;12.40;50.00;;;;;;5010924;28;20101;-62
2021/03/28 12:30:28;;;;;;;24.15;15.07;;;12.50;49.70;;;;;;5011464;28;20022;-62
2021/03/28 12:33:06;;;;;;;24.10;16.10;;;12.50;49.60;;;;;;5024669;28;20022;-62
2021/03/28 12:35:46;;;;;;;22.48;15.60;;;12.50;49.40;;;;;;5012038;28;20026;-62
2021/03/28 12:38:27;;;;;;;25.73;17.13;;;12.50;49.50;;;;;;5010864;28;20033;-62
2021/03/28 12:41:21;;;;;;;21.27;14.65;;;12.50;49.20;;;;;;5011188;28;20663;-62
2021/03/28 12:44:07;;;;;;;22.63;15.43;;;12.50;49.10;;;;;;5011765;28;20014;-62
2021/03/28 12:47:00;;;;;;;19.73;14.50;;;12.50;49.10;;;;;;5014024;28;20426;-62
2021/03/28 12:49:59;;;;;;;19.08;12.90;;;12.50;48.90;;;;;;5008565;28;20077;-62
2021/03/28 12:52:48;;;;;;;17.52;13.15;;;12.50;49.20;;;;;;5011135;28;20128;-64
2021/03/28 12:55:17;;;;;;;20.42;14.05;;;12.50;48.90;;;;;;5012809;28;20050;-62
2021/03/28 12:57:44;;;;;;;19.92;14.60;;;12.50;48.90;;;;;;5014473;28;20061;-61
2021/03/28 13:00:19;;;;;;;17.75;12.43;;;12.50;48.90;;;;;;5016621;28;20473;-62
2021/03/28 13:02:47;;;;;;;23.45;13.48;;;12.60;48.90;;;;;;5015523;28;20129;-62
2021/03/28 13:05:12;;;;;;;20.70;14.85;;;12.60;49.00;;;;;;5010007;28;20026;-62
2021/03/28 13:07:53;;;;;;;18.83;13.73;;;12.60;49.00;;;;;;5006232;28;20375;-62
2021/03/28 13:10:25;;;;;;;19.23;13.50;;;12.50;48.40;;;;;;5010660;28;20424;-63
2021/03/28 13:13:01;;;;;;;18.50;12.77;;;12.60;48.70;;;;;;5014782;28;20075;-62
2021/03/28 13:15:30;;;;;;;17.95;12.43;;;12.50;48.50;;;;;;5014056;28;20096;-62
2021/03/28 13:18:18;;;;;;;15.88;12.48;;;12.60;48.70;;;;;;5007935;28;20034;-62
2021/03/28 13:21:28;;;;;;;17.95;12.70;;;12.50;48.70;;;;;;5012832;28;20057;-62
2021/03/28 13:24:01;;;;;;;20.70;12.10;;;12.50;48.50;;;;;;5012503;28;20026;-62
2021/03/28 13:26:29;;;;;;;20.75;13.80;;;12.50;48.60;;;;;;5013136;28;20366;-61
2021/03/28 13:28:56;;;;;;;18.42;13.15;;;12.60;48.50;;;;;;5013204;28;20041;-62
2021/03/28 13:31:32;;;;;;;19.63;12.82;;;12.60;48.40;;;;;;5013417;28;20026;-63
2021/03/28 13:34:17;;;;;;;19.60;13.18;;;12.60;48.30;;;;;;5025104;28;20036;-62
2021/03/28 13:36:58;;;;;;;16.60;12.60;;;12.60;48.30;;;;;;5011718;28;20026;-62
2021/03/28 13:39:24;;;;;;;19.52;13.10;;;12.60;48.30;;;;;;5028888;28;20025;-61
2021/03/28 13:42:16;;;;;;;18.35;12.80;;;12.60;48.30;;;;;;5013111;28;20473;-62
2021/03/28 13:45:00;;;;;;;19.08;12.45;;;12.60;48.50;;;;;;5011756;28;20483;-62
2021/03/28 13:47:57;;;;;;;16.55;12.52;;;12.60;48.40;;;;;;5015246;28;20517;-62
2021/03/28 13:50:34;;;;;;;17.40;12.73;;;12.60;48.20;;;;;;5022585;28;20469;-61
2021/03/28 13:53:03;;;;;;;19.60;12.57;;;12.60;48.30;;;;;;5011896;28;20022;-62
2021/03/28 13:55:43;;;;;;;17.75;13.35;;;12.60;48.20;;;;;;5011900;28;20025;-62
2021/03/28 13:58:31;;;;;;;17.77;11.77;;;12.60;48.60;;;;;;5013013;28;20021;-62
2021/03/28 14:01:47;;;;;;;18.15;12.15;;;12.60;48.60;;;;;;5013397;28;20387;-62
2021/03/28 14:04:34;;;;;;;16.55;11.15;;;12.50;48.50;;;;;;5034961;28;20026;-62
2021/03/28 14:07:11;;;;;;;16.90;10.98;;;12.50;48.50;;;;;;5016421;28;20058;-61